Time;durP1;ratioP1;P1;durP2;ratioP2;P2;SDS_P1;SDS_P2;PMS_P1;PMS_P2;Temp;Humidity;BMP_temperature;BMP_pressure;BME280_temperature;BME280_humidity;BME280_pressure;Samples;Min_cycle;Max_cycle;Signal;HPM_P1;HPM_P2
2020/12/19 00:02:21;;;;;;;386.83;59.90;;;;;;;;;;8259462;28;20356;-74
2020/12/19 00:06:26;;;;;;;236.85;46.58;;;;;;;;;;8258800;28;20479;-74
2020/12/19 00:10:29;;;;;;;220.88;42.72;;;;;;;;;;8257799;28;20382;-74
2020/12/19 00:14:33;;;;;;;256.75;44.55;;;;;;;;;;8258158;28;20479;-74
2020/12/19 00:18:36;;;;;;;268.65;42.40;;;;;;;;;;8240204;28;20365;-74
2020/12/19 00:22:39;;;;;;;235.48;42.30;;;;;;;;;;8258294;28;20417;-74
2020/12/19 00:26:43;;;;;;;211.30;41.30;;;;;;;;;;8240712;28;20414;-74
2020/12/19 00:30:46;;;;;;;237.20;37.22;;;;;;;;;;8240075;28;20475;-74
2020/12/19 00:34:48;;;;;;;187.93;40.92;;;;;;;;;;8258474;28;20478;-74
2020/12/19 00:38:51;;;;;;;217.82;36.65;;;;;;;;;;8258014;28;20452;-74
2020/12/19 00:42:54;;;;;;;176.55;33.42;;;;;;;;;;8240760;28;20469;-74
2020/12/19 00:46:58;;;;;;;168.32;33.00;;;;;;;;;;8272545;28;20487;-74
2020/12/19 00:51:01;;;;;;;168.20;35.65;;;;;;;;;;8258348;28;20071;-74
2020/12/19 00:55:05;;;;;;;193.65;31.45;;;;;;;;;;8257441;28;20375;-74
2020/12/19 00:59:09;;;;;;;187.68;32.63;;;;;;;;;;8240093;28;20479;-74
2020/12/19 01:03:12;;;;;;;201.18;35.95;;;;;;;;;;8257435;28;20490;-75
2020/12/19 01:07:15;;;;;;;161.93;32.28;;;;;;;;;;8257292;28;20459;-74
2020/12/19 01:11:21;;;;;;;143.48;28.73;;;;;;;;;;8257444;28;20476;-74
2020/12/19 01:15:25;;;;;;;116.63;30.73;;;;;;;;;;8272199;28;20464;-74
2020/12/19 01:19:28;;;;;;;103.68;24.83;;;;;;;;;;8257520;28;20372;-74
2020/12/19 01:23:31;;;;;;;109.90;22.80;;;;;;;;;;8240076;28;20357;-74
2020/12/19 01:27:34;;;;;;;83.15;21.15;;;;;;;;;;8257328;28;20369;-74
2020/12/19 01:31:38;;;;;;;93.50;23.45;;;;;;;;;;8257043;28;20360;-74
2020/12/19 01:35:41;;;;;;;168.23;49.33;;;;;;;;;;8257156;28;20071;-74
2020/12/19 01:39:44;;;;;;;130.50;32.17;;;;;;;;;;8257174;28;20472;-74
2020/12/19 01:43:48;;;;;;;102.85;25.13;;;;;;;;;;8256593;28;20361;-74
2020/12/19 01:47:55;;;;;;;117.22;28.17;;;;;;;;;;8256122;28;20375;-74
2020/12/19 01:52:02;;;;;;;127.20;22.02;;;;;;;;;;8256452;28;20371;-74
2020/12/19 01:56:09;;;;;;;114.25;22.45;;;;;;;;;;8271143;28;20407;-74
2020/12/19 02:00:12;;;;;;;111.88;23.83;;;;;;;;;;8256504;28;20108;-74
2020/12/19 02:04:17;;;;;;;83.00;18.75;;;;;;;;;;8238521;28;20463;-74
2020/12/19 02:08:21;;;;;;;140.27;21.80;;;;;;;;;;8256454;28;20406;-74
2020/12/19 02:12:24;;;;;;;131.98;25.13;;;;;;;;;;8244095;28;20475;-74
2020/12/19 02:16:27;;;;;;;151.80;22.50;;;;;;;;;;8263029;28;20464;-74
2020/12/19 02:20:30;;;;;;;79.88;19.10;;;;;;;;;;8262935;28;20495;-74
2020/12/19 02:24:34;;;;;;;145.75;30.13;;;;;;;;;;8227581;28;20371;-73
2020/12/19 02:28:37;;;;;;;139.30;26.02;;;;;;;;;;8277560;28;20414;-74
2020/12/19 02:32:41;;;;;;;112.60;21.58;;;;;;;;;;8262595;28;20386;-74
2020/12/19 02:36:44;;;;;;;145.52;22.33;;;;;;;;;;8262492;28;20479;-73
2020/12/19 02:40:47;;;;;;;95.80;19.45;;;;;;;;;;8262084;28;20359;-74
2020/12/19 02:44:50;;;;;;;127.65;21.48;;;;;;;;;;8244812;28;20368;-74
2020/12/19 02:48:54;;;;;;;122.05;19.52;;;;;;;;;;8244305;28;20460;-74
2020/12/19 02:52:57;;;;;;;149.52;22.63;;;;;;;;;;8244547;28;20480;-74
2020/12/19 02:57:00;;;;;;;140.48;23.52;;;;;;;;;;8262170;28;20379;-74
2020/12/19 03:01:03;;;;;;;118.93;21.52;;;;;;;;;;8243339;28;20464;-74
2020/12/19 03:05:07;;;;;;;131.38;22.33;;;;;;;;;;8276802;28;20467;-74
2020/12/19 03:09:10;;;;;;;117.63;25.05;;;;;;;;;;8261230;28;20475;-74
2020/12/19 03:13:13;;;;;;;164.32;22.73;;;;;;;;;;8260366;28;20045;-74
2020/12/19 03:17:16;;;;;;;126.85;20.13;;;;;;;;;;8261056;28;20376;-74
2020/12/19 03:21:19;;;;;;;144.43;22.27;;;;;;;;;;8241501;28;20356;-74
2020/12/19 03:25:22;;;;;;;115.07;19.60;;;;;;;;;;8260600;28;20068;-74
2020/12/19 03:29:26;;;;;;;123.50;16.20;;;;;;;;;;8275276;28;20367;-74
2020/12/19 03:33:29;;;;;;;152.90;20.33;;;;;;;;;;8243254;28;20485;-74
2020/12/19 03:37:33;;;;;;;174.65;19.30;;;;;;;;;;8260132;28;20472;-74
2020/12/19 03:41:36;;;;;;;144.65;18.52;;;;;;;;;;8260284;28;20479;-74
2020/12/19 03:45:39;;;;;;;111.90;15.70;;;;;;;;;;8259753;28;20402;-74
2020/12/19 03:49:43;;;;;;;132.15;17.35;;;;;;;;;;8242658;28;20382;-74
2020/12/19 03:53:46;;;;;;;103.38;15.90;;;;;;;;;;8260319;28;20375;-73
2020/12/19 03:57:49;;;;;;;100.47;16.05;;;;;;;;;;8259891;28;20356;-74
2020/12/19 04:01:52;;;;;;;114.95;14.70;;;;;;;;;;8258418;28;20387;-74
2020/12/19 04:05:56;;;;;;;151.70;15.65;;;;;;;;;;8259226;28;20379;-73
2020/12/19 04:09:59;;;;;;;101.00;14.75;;;;;;;;;;8241061;28;20380;-74
2020/12/19 04:14:02;;;;;;;147.80;19.20;;;;;;;;;;8259203;28;20487;-74
2020/12/19 04:18:05;;;;;;;112.28;19.98;;;;;;;;;;8240512;28;20475;-74
2020/12/19 04:22:08;;;;;;;90.25;17.55;;;;;;;;;;8258972;28;20057;-74
2020/12/19 04:26:11;;;;;;;85.13;19.90;;;;;;;;;;8258892;28;20479;-73
2020/12/19 04:30:16;;;;;;;102.80;15.13;;;;;;;;;;8258559;28;20049;-73
2020/12/19 04:34:18;;;;;;;118.25;18.60;;;;;;;;;;8273089;28;20460;-74
2020/12/19 04:38:22;;;;;;;69.65;18.48;;;;;;;;;;8258730;28;20379;-73
2020/12/19 04:42:25;;;;;;;153.77;24.42;;;;;;;;;;8258350;28;20497;-74
2020/12/19 04:46:32;;;;;;;79.75;18.67;;;;;;;;;;8257925;28;20083;-74
2020/12/19 04:50:40;;;;;;;97.28;16.83;;;;;;;;;;8240696;28;20463;-74
2020/12/19 04:54:43;;;;;;;81.85;13.52;;;;;;;;;;8257661;28;20472;-74
2020/12/19 04:58:46;;;;;;;85.80;15.90;;;;;;;;;;8240396;28;20464;-73
2020/12/19 05:02:49;;;;;;;111.90;13.93;;;;;;;;;;8240485;28;20365;-74
2020/12/19 05:06:57;;;;;;;103.80;13.85;;;;;;;;;;8257650;28;20506;-74
2020/12/19 05:11:00;;;;;;;107.72;15.48;;;;;;;;;;8272147;28;20472;-73
2020/12/19 05:15:06;;;;;;;88.38;13.23;;;;;;;;;;8223924;28;20490;-74
2020/12/19 05:19:10;;;;;;;128.65;15.85;;;;;;;;;;8257052;28;20479;-74
2020/12/19 05:23:15;;;;;;;113.00;16.88;;;;;;;;;;8228193;28;20532;-74
2020/12/19 05:27:19;;;;;;;88.20;14.55;;;;;;;;;;8236261;28;20501;-74
2020/12/19 05:31:23;;;;;;;123.45;17.48;;;;;;;;;;8257108;28;20429;-73
2020/12/19 05:35:26;;;;;;;109.45;18.30;;;;;;;;;;8257160;28;20494;-74
2020/12/19 05:39:31;;;;;;;94.15;15.23;;;;;;;;;;8256626;28;20383;-73
2020/12/19 05:43:34;;;;;;;122.28;15.57;;;;;;;;;;8238719;28;20375;-74
2020/12/19 05:47:37;;;;;;;118.82;14.48;;;;;;;;;;8245936;28;20378;-74
2020/12/19 05:51:43;;;;;;;91.63;12.38;;;;;;;;;;8271999;28;20414;-74
2020/12/19 05:55:47;;;;;;;118.07;13.05;;;;;;;;;;8288934;28;20390;-74
2020/12/19 05:59:50;;;;;;;97.28;12.18;;;;;;;;;;8289942;28;20493;-74
2020/12/19 06:03:56;;;;;;;158.07;14.07;;;;;;;;;;8271778;28;20375;-74
2020/12/19 06:08:00;;;;;;;113.90;13.57;;;;;;;;;;8288562;28;20502;-73
2020/12/19 06:12:15;;;;;;;102.13;15.10;;;;;;;;;;8271581;28;20474;-74
2020/12/19 06:16:19;;;;;;;126.38;13.93;;;;;;;;;;8271790;28;20383;-74
2020/12/19 06:20:23;;;;;;;99.07;12.38;;;;;;;;;;8271522;28;20360;-74
2020/12/19 06:24:48;;;;;;;134.75;14.30;;;;;;;;;;8254451;28;20374;-74
2020/12/19 06:28:53;;;;;;;238.23;51.58;;;;;;;;;;8289129;28;20486;-74
2020/12/19 06:33:09;;;;;;;97.57;17.17;;;;;;;;;;8270888;28;20071;-74
2020/12/19 06:37:20;;;;;;;86.57;16.17;;;;;;;;;;8270985;28;20351;-74
2020/12/19 06:41:42;;;;;;;553.92;303.88;;;;;;;;;;8271461;28;20505;-73
2020/12/19 06:45:45;;;;;;;220.98;41.15;;;;;;;;;;8271348;28;20486;-73
2020/12/19 06:49:54;;;;;;;262.98;40.28;;;;;;;;;;8288949;28;20041;-74
2020/12/19 06:53:57;;;;;;;397.63;57.83;;;;;;;;;;8288242;28;20402;-74
2020/12/19 06:58:00;;;;;;;131.88;14.50;;;;;;;;;;8274455;28;20471;-73
2020/12/19 07:02:24;;;;;;;89.45;13.65;;;;;;;;;;8292771;28;20502;-74
2020/12/19 07:06:27;;;;;;;69.15;11.18;;;;;;;;;;8276365;28;20364;-74
2020/12/19 07:10:39;;;;;;;100.03;13.40;;;;;;;;;;8293617;28;20048;-74
2020/12/19 07:14:43;;;;;;;126.63;11.45;;;;;;;;;;8293458;28;20487;-73
2020/12/19 07:18:46;;;;;;;84.15;11.82;;;;;;;;;;8275847;28;20378;-74
2020/12/19 07:22:50;;;;;;;76.47;11.07;;;;;;;;;;8293348;28;20352;-74
2020/12/19 07:26:55;;;;;;;82.07;11.02;;;;;;;;;;8291653;28;20489;-74
2020/12/19 07:30:59;;;;;;;83.00;10.88;;;;;;;;;;8293106;28;20475;-73
2020/12/19 07:35:03;;;;;;;91.05;12.43;;;;;;;;;;8293054;28;20044;-75
2020/12/19 07:39:08;;;;;;;67.13;12.38;;;;;;;;;;8291108;28;20482;-74
2020/12/19 07:43:11;;;;;;;57.47;12.02;;;;;;;;;;8292739;28;20053;-74
2020/12/19 07:47:14;;;;;;;105.25;15.13;;;;;;;;;;8292441;28;20475;-73
2020/12/19 07:51:22;;;;;;;72.32;11.50;;;;;;;;;;8292523;28;20478;-74
2020/12/19 07:55:25;;;;;;;69.45;12.63;;;;;;;;;;8292816;28;20364;-74
2020/12/19 07:59:29;;;;;;;69.65;12.50;;;;;;;;;;8292201;28;20072;-73
2020/12/19 08:03:31;;;;;;;70.82;11.05;;;;;;;;;;8274969;28;20469;-74
2020/12/19 08:07:38;;;;;;;52.22;12.00;;;;;;;;;;8291377;28;20367;-74
2020/12/19 08:11:46;;;;;;;70.93;12.48;;;;;;;;;;8257551;28;20157;-74
2020/12/19 08:15:49;;;;;;;58.60;11.73;;;;;;;;;;8291690;28;20412;-74
2020/12/19 08:19:57;;;;;;;67.80;12.20;;;;;;;;;;8291869;28;20082;-74
2020/12/19 08:24:00;;;;;;;52.80;11.18;;;;;;;;;;8274017;28;20364;-74
2020/12/19 08:28:04;;;;;;;59.97;12.57;;;;;;;;;;8290864;28;20477;-74
2020/12/19 08:32:09;;;;;;;74.13;13.10;;;;;;;;;;8272965;28;20417;-74
2020/12/19 08:36:13;;;;;;;72.43;12.30;;;;;;;;;;8289999;28;20363;-73
2020/12/19 08:40:20;;;;;;;110.78;19.30;;;;;;;;;;8291210;28;20374;-74
2020/12/19 08:44:26;;;;;;;59.28;12.60;;;;;;;;;;8289210;28;20379;-74
2020/12/19 08:48:29;;;;;;;75.13;13.00;;;;;;;;;;8290565;28;20489;-74
2020/12/19 08:52:32;;;;;;;78.65;13.23;;;;;;;;;;8290242;28;20382;-74
2020/12/19 08:56:36;;;;;;;72.15;13.40;;;;;;;;;;8290831;28;20360;-74
2020/12/19 09:00:39;;;;;;;71.22;14.02;;;;;;;;;;8272765;28;20446;-75
2020/12/19 09:04:49;;;;;;;75.90;12.35;;;;;;;;;;8289117;28;20485;-74
2020/12/19 09:08:52;;;;;;;60.35;12.50;;;;;;;;;;8290044;28;20430;-75
2020/12/19 09:13:21;;;;;;;90.93;14.90;;;;;;;;;;8289716;28;20497;-73
2020/12/19 09:17:31;;;;;;;70.03;12.98;;;;;;;;;;8290133;28;20524;-74
2020/12/19 09:21:35;;;;;;;51.35;12.55;;;;;;;;;;8290424;28;20397;-74
2020/12/19 09:25:39;;;;;;;89.35;17.88;;;;;;;;;;8272114;28;20489;-73
2020/12/19 09:29:43;;;;;;;84.97;20.80;;;;;;;;;;8289842;28;20079;-73
2020/12/19 09:33:48;;;;;;;78.47;13.15;;;;;;;;;;8290043;28;20474;-74
2020/12/19 09:37:52;;;;;;;77.70;13.40;;;;;;;;;;8289251;28;20467;-74
2020/12/19 09:42:03;;;;;;;73.53;13.32;;;;;;;;;;8271885;28;20485;-74
2020/12/19 09:46:06;;;;;;;79.43;13.68;;;;;;;;;;8237950;28;20386;-75
2020/12/19 09:50:11;;;;;;;60.38;14.43;;;;;;;;;;8289677;28;20044;-75
2020/12/19 09:54:14;;;;;;;48.75;12.85;;;;;;;;;;8288935;28;20057;-75
2020/12/19 09:58:17;;;;;;;50.13;14.13;;;;;;;;;;8288978;28;20383;-74
2020/12/19 10:02:20;;;;;;;56.45;13.82;;;;;;;;;;8289113;28;20372;-73
2020/12/19 10:06:23;;;;;;;60.80;12.18;;;;;;;;;;8289284;28;20490;-73
2020/12/19 10:10:27;;;;;;;41.45;13.07;;;;;;;;;;8271372;28;20505;-73
2020/12/19 10:14:30;;;;;;;54.95;17.60;;;;;;;;;;8271563;28;20463;-73
2020/12/19 10:18:33;;;;;;;59.97;15.90;;;;;;;;;;8289149;28;20371;-73
2020/12/19 10:22:36;;;;;;;47.65;14.27;;;;;;;;;;8287484;28;20401;-73
2020/12/19 10:26:40;;;;;;;47.88;12.43;;;;;;;;;;8289231;28;20471;-73
2020/12/19 10:30:42;;;;;;;49.85;16.90;;;;;;;;;;8289626;28;20477;-73
2020/12/19 10:34:48;;;;;;;39.10;13.13;;;;;;;;;;8294405;28;20062;-73
2020/12/19 10:38:51;;;;;;;51.13;15.07;;;;;;;;;;8294150;28;20413;-73
2020/12/19 10:42:54;;;;;;;51.20;16.58;;;;;;;;;;8276554;28;20049;-74
2020/12/19 10:46:59;;;;;;;58.53;18.95;;;;;;;;;;8294618;28;20467;-73
2020/12/19 10:51:02;;;;;;;44.30;15.32;;;;;;;;;;8295856;28;20374;-73
2020/12/19 10:55:06;;;;;;;45.33;16.20;;;;;;;;;;8276377;28;20052;-73
2020/12/19 10:59:09;;;;;;;40.03;14.23;;;;;;;;;;8294562;28;20463;-73
2020/12/19 11:03:12;;;;;;;42.90;16.77;;;;;;;;;;8294438;28;20413;-73
2020/12/19 11:07:15;;;;;;;45.13;18.15;;;;;;;;;;8293898;28;20048;-73
2020/12/19 11:11:19;;;;;;;41.53;16.58;;;;;;;;;;8294109;28;20479;-73
2020/12/19 11:15:22;;;;;;;39.92;15.95;;;;;;;;;;8294179;28;20072;-73
2020/12/19 11:19:25;;;;;;;33.63;15.48;;;;;;;;;;8293580;28;20393;-73
2020/12/19 11:23:29;;;;;;;33.30;15.25;;;;;;;;;;8275756;28;20057;-73
2020/12/19 11:27:33;;;;;;;30.85;12.68;;;;;;;;;;8292781;28;20479;-73
2020/12/19 11:31:38;;;;;;;51.53;21.83;;;;;;;;;;8293678;28;20385;-73
2020/12/19 11:35:41;;;;;;;41.88;14.90;;;;;;;;;;8293264;28;20467;-73
2020/12/19 11:39:44;;;;;;;34.33;13.73;;;;;;;;;;8292069;28;20455;-73
2020/12/19 11:43:48;;;;;;;39.05;15.20;;;;;;;;;;8292027;28;20374;-73
2020/12/19 11:47:51;;;;;;;32.25;14.95;;;;;;;;;;8292902;28;20459;-73
2020/12/19 11:51:55;;;;;;;29.15;14.40;;;;;;;;;;8241239;28;20490;-73
2020/12/19 11:55:58;;;;;;;35.30;15.15;;;;;;;;;;8292347;28;20049;-73
2020/12/19 12:00:01;;;;;;;33.05;13.80;;;;;;;;;;8274409;28;20067;-73
2020/12/19 12:04:06;;;;;;;29.75;15.23;;;;;;;;;;8292321;28;20079;-73
2020/12/19 12:08:09;;;;;;;39.45;16.30;;;;;;;;;;8274649;28;20459;-73
2020/12/19 12:12:12;;;;;;;39.72;16.95;;;;;;;;;;8273737;28;20060;-73
2020/12/19 12:16:15;;;;;;;35.90;16.20;;;;;;;;;;8292157;28;20070;-73
2020/12/19 12:20:19;;;;;;;42.70;15.40;;;;;;;;;;8291555;28;20371;-73
2020/12/19 12:24:22;;;;;;;41.85;17.55;;;;;;;;;;8291497;28;20482;-73
2020/12/19 12:28:26;;;;;;;149.07;69.10;;;;;;;;;;8291759;28;20071;-73
2020/12/19 12:32:29;;;;;;;65.07;28.42;;;;;;;;;;8291314;28;20489;-73
2020/12/19 12:36:32;;;;;;;30.55;14.40;;;;;;;;;;8291489;28;20083;-73
2020/12/19 12:40:36;;;;;;;30.70;14.35;;;;;;;;;;8272203;28;20497;-73
2020/12/19 12:44:40;;;;;;;30.38;15.80;;;;;;;;;;8289088;28;20106;-73
2020/12/19 12:48:44;;;;;;;34.83;14.77;;;;;;;;;;8290962;28;20485;-73
2020/12/19 12:52:47;;;;;;;42.78;18.50;;;;;;;;;;8290376;28;20467;-73
2020/12/19 12:56:50;;;;;;;35.47;17.73;;;;;;;;;;8272934;28;20463;-74
2020/12/19 13:00:54;;;;;;;38.35;18.70;;;;;;;;;;8272105;28;20071;-74
2020/12/19 13:04:57;;;;;;;62.92;32.90;;;;;;;;;;8290621;28;20049;-73
2020/12/19 13:09:00;;;;;;;78.63;39.33;;;;;;;;;;8290154;28;20359;-74
2020/12/19 13:13:03;;;;;;;80.32;40.08;;;;;;;;;;8290455;28;20417;-73
2020/12/19 13:17:06;;;;;;;53.53;25.70;;;;;;;;;;8272321;28;20475;-74
2020/12/19 13:21:10;;;;;;;45.78;19.05;;;;;;;;;;8290032;28;20382;-74
2020/12/19 13:25:14;;;;;;;76.65;32.00;;;;;;;;;;8290522;28;20485;-74
2020/12/19 13:29:18;;;;;;;46.28;21.83;;;;;;;;;;8290349;28;20044;-73
2020/12/19 13:33:23;;;;;;;67.15;31.38;;;;;;;;;;8289789;28;20459;-73
2020/12/19 13:37:27;;;;;;;103.05;43.13;;;;;;;;;;8289266;28;20401;-75
2020/12/19 13:41:30;;;;;;;75.20;37.58;;;;;;;;;;8290117;28;20501;-75
2020/12/19 13:45:33;;;;;;;90.78;38.63;;;;;;;;;;8271675;28;20497;-74
2020/12/19 13:49:36;;;;;;;144.43;46.72;;;;;;;;;;8288931;28;20496;-74
2020/12/19 13:53:40;;;;;;;64.10;26.95;;;;;;;;;;8287913;28;20388;-74
2020/12/19 13:57:46;;;;;;;66.93;24.45;;;;;;;;;;8288980;28;20063;-74
2020/12/19 14:01:54;;;;;;;88.85;32.80;;;;;;;;;;8289283;28;20476;-74
2020/12/19 14:05:57;;;;;;;88.03;29.27;;;;;;;;;;8290159;28;20410;-74
2020/12/19 14:10:00;;;;;;;74.85;25.73;;;;;;;;;;8296176;28;20467;-74
2020/12/19 14:14:05;;;;;;;75.07;25.17;;;;;;;;;;8296080;28;20481;-74
2020/12/19 14:18:08;;;;;;;58.10;22.35;;;;;;;;;;8278246;28;20063;-74
2020/12/19 14:22:11;;;;;;;70.57;27.33;;;;;;;;;;8277686;28;20386;-75
2020/12/19 14:26:26;;;;;;;91.05;30.38;;;;;;;;;;8295572;28;20053;-75
2020/12/19 14:30:29;;;;;;;104.90;35.83;;;;;;;;;;8226122;28;20506;-75
2020/12/19 14:34:33;;;;;;;44.90;20.75;;;;;;;;;;8225134;28;20467;-75
2020/12/19 14:38:36;;;;;;;57.33;25.10;;;;;;;;;;8209325;28;20497;-73
2020/12/19 14:42:43;;;;;;;101.50;35.38;;;;;;;;;;8224488;28;20068;-74
2020/12/19 14:46:50;;;;;;;254.48;113.53;;;;;;;;;;8207846;28;20369;-74
2020/12/19 14:50:53;;;;;;;115.05;52.13;;;;;;;;;;8224800;28;20475;-74
2020/12/19 14:54:57;;;;;;;326.33;154.00;;;;;;;;;;8224792;28;20516;-73
2020/12/19 14:59:00;;;;;;;65.40;30.02;;;;;;;;;;8224910;28;20361;-74
2020/12/19 15:03:04;;;;;;;46.15;19.25;;;;;;;;;;8225472;28;20053;-73
2020/12/19 15:07:06;;;;;;;45.25;18.20;;;;;;;;;;8241596;28;20501;-73
2020/12/19 15:11:16;;;;;;;40.08;18.73;;;;;;;;;;8294019;28;20378;-73
2020/12/19 15:15:19;;;;;;;37.85;15.85;;;;;;;;;;8293600;28;20458;-74
2020/12/19 15:19:24;;;;;;;53.45;25.00;;;;;;;;;;8293957;28;20071;-74
2020/12/19 15:23:30;;;;;;;87.55;38.85;;;;;;;;;;8275920;28;20044;-74
2020/12/19 15:27:36;;;;;;;84.60;35.40;;;;;;;;;;8242461;28;20070;-74
2020/12/19 15:31:40;;;;;;;78.68;28.42;;;;;;;;;;8293636;28;20479;-74
2020/12/19 15:35:43;;;;;;;65.28;22.35;;;;;;;;;;8275144;28;20356;-74
2020/12/19 15:39:50;;;;;;;63.88;19.50;;;;;;;;;;8293129;28;20070;-74
2020/12/19 15:43:56;;;;;;;52.60;20.27;;;;;;;;;;8291751;28;20033;-74
2020/12/19 15:48:10;;;;;;;58.80;23.80;;;;;;;;;;8290808;28;20386;-74
2020/12/19 15:52:13;;;;;;;43.63;18.95;;;;;;;;;;8275283;28;20375;-74
2020/12/19 15:56:17;;;;;;;41.35;17.02;;;;;;;;;;8291133;28;20383;-74
2020/12/19 16:00:20;;;;;;;47.10;19.45;;;;;;;;;;8292298;28;20389;-74
2020/12/19 16:04:23;;;;;;;46.65;18.92;;;;;;;;;;8257550;28;20482;-73
2020/12/19 16:08:26;;;;;;;45.78;16.52;;;;;;;;;;8292299;28;20479;-74
2020/12/19 16:12:30;;;;;;;45.55;20.13;;;;;;;;;;8275694;28;20432;-74
2020/12/19 16:16:36;;;;;;;42.30;15.82;;;;;;;;;;8240205;28;20379;-74
2020/12/19 16:20:39;;;;;;;70.35;18.60;;;;;;;;;;8190155;28;20415;-74
2020/12/19 16:24:42;;;;;;;147.70;28.02;;;;;;;;;;8190392;28;20388;-73
2020/12/19 16:28:48;;;;;;;107.78;27.63;;;;;;;;;;8189433;28;20058;-73
2020/12/19 16:33:04;;;;;;;97.15;19.95;;;;;;;;;;8189006;28;20372;-74
2020/12/19 16:37:09;;;;;;;97.07;17.13;;;;;;;;;;8189705;28;20456;-74
2020/12/19 16:41:18;;;;;;;119.00;17.00;;;;;;;;;;8189247;28;20413;-74
2020/12/19 16:45:23;;;;;;;88.97;18.83;;;;;;;;;;8093671;29;20364;-74
2020/12/19 16:49:27;;;;;;;99.45;18.73;;;;;;;;;;8105544;28;20045;-74
2020/12/19 16:53:31;;;;;;;91.82;16.35;;;;;;;;;;8188929;28;20050;-74
2020/12/19 16:57:46;;;;;;;63.92;17.55;;;;;;;;;;8189061;28;20042;-73
2020/12/19 17:01:50;;;;;;;73.88;18.95;;;;;;;;;;8188410;28;20353;-74
2020/12/19 17:05:53;;;;;;;82.07;18.23;;;;;;;;;;8188180;28;20491;-74
2020/12/19 17:09:56;;;;;;;95.32;19.27;;;;;;;;;;8172423;28;20050;-74
2020/12/19 17:14:00;;;;;;;85.43;17.95;;;;;;;;;;8196938;28;20045;-74
2020/12/19 17:18:04;;;;;;;70.15;18.75;;;;;;;;;;8290535;28;20463;-74
2020/12/19 17:22:11;;;;;;;107.45;23.20;;;;;;;;;;8289870;28;20406;-73
2020/12/19 17:26:15;;;;;;;116.15;22.38;;;;;;;;;;8290098;28;20367;-73
2020/12/19 17:30:18;;;;;;;151.68;25.90;;;;;;;;;;8289561;28;20486;-74
2020/12/19 17:34:21;;;;;;;141.45;26.15;;;;;;;;;;8257290;28;20053;-74
2020/12/19 17:38:24;;;;;;;84.90;18.85;;;;;;;;;;8239183;28;20048;-73
2020/12/19 17:42:28;;;;;;;125.05;20.52;;;;;;;;;;8253804;28;20415;-74
2020/12/19 17:46:38;;;;;;;109.18;22.08;;;;;;;;;;8263327;28;20052;-74
2020/12/19 17:50:42;;;;;;;138.23;22.60;;;;;;;;;;8288468;28;20378;-73
2020/12/19 17:54:45;;;;;;;104.20;19.10;;;;;;;;;;8256170;28;20469;-73
2020/12/19 17:58:48;;;;;;;106.95;21.83;;;;;;;;;;8289783;28;20360;-74
2020/12/19 18:02:51;;;;;;;125.30;20.98;;;;;;;;;;8287699;28;20489;-73
2020/12/19 18:06:55;;;;;;;84.45;17.10;;;;;;;;;;8289197;28;20392;-74
2020/12/19 18:10:59;;;;;;;93.97;20.30;;;;;;;;;;8289180;28;20477;-74
2020/12/19 18:15:05;;;;;;;85.95;19.15;;;;;;;;;;8270597;28;20378;-74
2020/12/19 18:19:10;;;;;;;79.15;17.42;;;;;;;;;;8289272;28;20356;-76
2020/12/19 18:23:14;;;;;;;87.55;15.40;;;;;;;;;;8289272;28;20386;-74
2020/12/19 18:27:18;;;;;;;78.35;16.00;;;;;;;;;;8289558;28;20486;-74
2020/12/19 18:31:21;;;;;;;55.47;17.55;;;;;;;;;;8289046;28;20413;-74
2020/12/19 18:35:24;;;;;;;72.97;16.00;;;;;;;;;;8270690;28;20467;-74
2020/12/19 18:39:28;;;;;;;97.72;18.35;;;;;;;;;;8237294;28;20052;-73
2020/12/19 18:43:31;;;;;;;96.32;16.13;;;;;;;;;;8237470;28;20378;-73
2020/12/19 18:47:35;;;;;;;97.38;17.23;;;;;;;;;;8288400;28;20406;-74
2020/12/19 18:51:39;;;;;;;117.00;16.33;;;;;;;;;;8238057;28;20041;-73
2020/12/19 18:55:42;;;;;;;105.93;19.67;;;;;;;;;;8294384;28;20482;-73
2020/12/19 18:59:45;;;;;;;152.55;28.15;;;;;;;;;;8226347;28;20467;-73
2020/12/19 19:03:50;;;;;;;80.55;19.77;;;;;;;;;;8243313;28;20487;-74
2020/12/19 19:07:54;;;;;;;102.85;26.17;;;;;;;;;;8291890;28;20510;-74
2020/12/19 19:11:57;;;;;;;176.75;27.88;;;;;;;;;;8258886;28;20049;-73
2020/12/19 19:16:02;;;;;;;88.75;16.27;;;;;;;;;;8259126;28;20375;-73
2020/12/19 19:20:05;;;;;;;102.13;19.70;;;;;;;;;;8242892;28;20494;-73
2020/12/19 19:24:13;;;;;;;76.35;16.80;;;;;;;;;;8275773;28;20045;-74
2020/12/19 19:28:18;;;;;;;149.38;27.20;;;;;;;;;;8291645;28;20379;-74
2020/12/19 19:32:22;;;;;;;114.43;19.80;;;;;;;;;;8290778;28;20074;-74
2020/12/19 19:36:30;;;;;;;215.10;37.97;;;;;;;;;;8290874;28;20482;-74
2020/12/19 19:40:34;;;;;;;216.57;35.92;;;;;;;;;;8326234;28;20056;-74
2020/12/19 19:44:39;;;;;;;115.97;20.92;;;;;;;;;;8174141;28;20510;-74
2020/12/19 19:48:45;;;;;;;189.07;42.53;;;;;;;;;;8180460;28;20400;-74
2020/12/19 19:52:50;;;;;;;153.60;24.33;;;;;;;;;;8192111;28;20049;-74
2020/12/19 19:56:55;;;;;;;124.25;22.77;;;;;;;;;;8201147;28;20392;-74
2020/12/19 20:01:04;;;;;;;178.02;29.55;;;;;;;;;;8186586;28;20528;-74
2020/12/19 20:05:07;;;;;;;98.20;18.67;;;;;;;;;;8204529;28;20486;-74
2020/12/19 20:09:13;;;;;;;196.60;30.55;;;;;;;;;;8213990;28;20405;-74
2020/12/19 20:13:18;;;;;;;153.63;26.98;;;;;;;;;;8191839;28;20044;-74
2020/12/19 20:17:24;;;;;;;522.20;135.43;;;;;;;;;;8278749;28;20063;-74
2020/12/19 20:21:29;;;;;;;205.27;33.17;;;;;;;;;;8221609;28;20475;-74
2020/12/19 20:25:34;;;;;;;141.65;30.30;;;;;;;;;;8234185;28;20497;-74
2020/12/19 20:29:37;;;;;;;174.35;23.50;;;;;;;;;;8253532;28;20413;-74
2020/12/19 20:33:41;;;;;;;159.02;22.30;;;;;;;;;;8199385;28;20388;-74
2020/12/19 20:37:49;;;;;;;179.40;21.30;;;;;;;;;;8184081;28;20391;-74
2020/12/19 20:42:00;;;;;;;190.70;22.80;;;;;;;;;;8176326;28;20435;-74
2020/12/19 20:46:04;;;;;;;150.10;21.60;;;;;;;;;;8167741;28;20045;-73
2020/12/19 20:50:08;;;;;;;169.68;21.08;;;;;;;;;;8151200;28;20389;-75
2020/12/19 20:54:15;;;;;;;188.07;25.98;;;;;;;;;;8153163;28;20388;-74
2020/12/19 20:58:25;;;;;;;165.10;24.65;;;;;;;;;;8157309;28;20472;-74
2020/12/19 21:02:31;;;;;;;149.02;22.70;;;;;;;;;;8180103;28;20049;-74
2020/12/19 21:06:37;;;;;;;153.10;24.08;;;;;;;;;;8216853;28;20474;-74
2020/12/19 21:10:42;;;;;;;165.82;21.25;;;;;;;;;;8273929;28;20459;-74
2020/12/19 21:14:45;;;;;;;137.23;19.77;;;;;;;;;;8257933;28;20459;-74
2020/12/19 21:18:53;;;;;;;141.65;21.38;;;;;;;;;;8268748;28;20389;-74
2020/12/19 21:22:58;;;;;;;198.25;23.75;;;;;;;;;;8312241;28;20467;-74
2020/12/19 21:27:02;;;;;;;118.72;20.75;;;;;;;;;;8275482;28;20361;-74
2020/12/19 21:31:07;;;;;;;131.45;23.13;;;;;;;;;;8283278;28;20375;-75
2020/12/19 21:35:14;;;;;;;140.23;22.30;;;;;;;;;;8221791;28;20056;-74
2020/12/19 21:39:17;;;;;;;142.95;30.02;;;;;;;;;;8237817;28;20057;-74
2020/12/19 21:43:20;;;;;;;102.88;20.55;;;;;;;;;;8251925;28;20371;-74
2020/12/19 21:47:23;;;;;;;117.28;23.33;;;;;;;;;;8255264;28;20478;-73
2020/12/19 21:51:26;;;;;;;135.63;29.13;;;;;;;;;;8255406;28;20391;-74
2020/12/19 21:55:31;;;;;;;145.55;25.85;;;;;;;;;;8247024;28;20464;-74
2020/12/19 21:59:35;;;;;;;282.45;47.63;;;;;;;;;;8246933;28;20523;-74
2020/12/19 22:03:38;;;;;;;249.38;40.70;;;;;;;;;;8225914;28;20475;-74
2020/12/19 22:07:44;;;;;;;314.70;46.00;;;;;;;;;;8252127;28;20479;-73
2020/12/19 22:11:47;;;;;;;140.45;28.35;;;;;;;;;;8234784;28;20502;-74
2020/12/19 22:15:51;;;;;;;194.40;36.33;;;;;;;;;;8214566;28;20395;-74
2020/12/19 22:19:53;;;;;;;243.93;39.17;;;;;;;;;;8284630;28;20064;-74
2020/12/19 22:23:56;;;;;;;180.27;35.42;;;;;;;;;;8275808;28;20378;-74
2020/12/19 22:28:00;;;;;;;211.02;31.60;;;;;;;;;;8290808;28;20085;-74
2020/12/19 22:32:03;;;;;;;177.80;30.17;;;;;;;;;;8289597;28;20478;-75
2020/12/19 22:36:11;;;;;;;117.38;24.67;;;;;;;;;;8225815;28;20071;-74
2020/12/19 22:40:15;;;;;;;187.10;36.20;;;;;;;;;;8261345;28;20475;-74
2020/12/19 22:44:21;;;;;;;246.65;41.90;;;;;;;;;;8257825;28;20487;-74
2020/12/19 22:48:24;;;;;;;245.32;44.70;;;;;;;;;;8260314;28;20381;-74
2020/12/19 22:52:27;;;;;;;184.45;31.35;;;;;;;;;;8258961;28;20461;-73
2020/12/19 22:56:30;;;;;;;191.07;38.17;;;;;;;;;;8260791;28;20422;-73
2020/12/19 23:00:36;;;;;;;169.25;29.73;;;;;;;;;;8260898;28;20375;-73
2020/12/19 23:04:40;;;;;;;95.35;21.98;;;;;;;;;;8259210;28;20361;-74
2020/12/19 23:08:43;;;;;;;166.77;34.80;;;;;;;;;;8263275;28;20413;-73
2020/12/19 23:12:46;;;;;;;228.60;47.28;;;;;;;;;;8289217;28;20463;-73
2020/12/19 23:16:49;;;;;;;176.57;37.35;;;;;;;;;;8272275;28;20534;-73
2020/12/19 23:20:55;;;;;;;159.82;28.10;;;;;;;;;;8292692;28;20379;-73
2020/12/19 23:24:58;;;;;;;134.30;19.58;;;;;;;;;;8289105;28;20520;-73
2020/12/19 23:29:01;;;;;;;129.57;20.85;;;;;;;;;;8291185;28;20372;-73
2020/12/19 23:33:04;;;;;;;121.65;18.98;;;;;;;;;;8289968;28;20463;-73